sensor_id;sensor_type;location;lat;lon;timestamp;pressure;altitude;pressure_sealevel;temperature;humidity
5777;BME280;2914;42.668;23.346;2023-01-26T00:01:44;94964.17;;;-0.57;100.00
5777;BME280;2914;42.668;23.346;2023-01-26T00:04:13;94977.28;;;-0.49;100.00
5777;BME280;2914;42.668;23.346;2023-01-26T00:06:42;94971.18;;;-0.38;100.00
5777;BME280;2914;42.668;23.346;2023-01-26T00:09:13;94986.98;;;-0.44;100.00
5777;BME280;2914;42.668;23.346;2023-01-26T00:11:42;94978.95;;;-0.38;100.00
5777;BME280;2914;42.668;23.346;2023-01-26T00:14:11;94969.75;;;-0.56;100.00
5777;BME280;2914;42.668;23.346;2023-01-26T00:16:40;94957.44;;;-0.61;100.00
5777;BME280;2914;42.668;23.346;2023-01-26T00:19:10;94988.61;;;-0.73;100.00
5777;BME280;2914;42.668;23.346;2023-01-26T00:21:39;94982.31;;;-0.57;100.00
5777;BME280;2914;42.668;23.346;2023-01-26T00:24:08;94982.72;;;-0.66;100.00
5777;BME280;2914;42.668;23.346;2023-01-26T00:26:37;94972.48;;;-0.59;100.00
5777;BME280;2914;42.668;23.346;2023-01-26T00:29:06;94985.87;;;-0.59;100.00
5777;BME280;2914;42.668;23.346;2023-01-26T00:31:36;94977.66;;;-0.59;100.00
5777;BME280;2914;42.668;23.346;2023-01-26T00:34:05;94969.80;;;-0.67;100.00
5777;BME280;2914;42.668;23.346;2023-01-26T00:36:34;94972.41;;;-0.78;100.00
5777;BME280;2914;42.668;23.346;2023-01-26T00:39:04;94948.19;;;-0.77;100.00
5777;BME280;2914;42.668;23.346;2023-01-26T00:41:33;94960.42;;;-0.80;100.00
5777;BME280;2914;42.668;23.346;2023-01-26T00:44:19;94953.17;;;-0.72;100.00
5777;BME280;2914;42.668;23.346;2023-01-26T00:46:48;94947.41;;;-0.69;100.00
5777;BME280;2914;42.668;23.346;2023-01-26T00:49:17;94943.63;;;-0.72;100.00
5777;BME280;2914;42.668;23.346;2023-01-26T00:51:46;94953.56;;;-0.71;100.00
5777;BME280;2914;42.668;23.346;2023-01-26T00:54:16;94949.47;;;-0.66;100.00
5777;BME280;2914;42.668;23.346;2023-01-26T00:56:45;94951.80;;;-0.71;100.00
5777;BME280;2914;42.668;23.346;2023-01-26T00:59:14;94943.77;;;-0.75;100.00
5777;BME280;2914;42.668;23.346;2023-01-26T01:01:43;94929.78;;;-0.71;100.00
5777;BME280;2914;42.668;23.346;2023-01-26T01:04:12;94943.27;;;-0.73;100.00
5777;BME280;2914;42.668;23.346;2023-01-26T01:06:42;94946.70;;;-0.82;100.00
5777;BME280;2914;42.668;23.346;2023-01-26T01:09:11;94920.84;;;-0.84;100.00
5777;BME280;2914;42.668;23.346;2023-01-26T01:38:10;94902.42;;;-0.47;100.00
5777;BME280;2914;42.668;23.346;2023-01-26T01:40:43;94910.53;;;-0.65;100.00
5777;BME280;2914;42.668;23.346;2023-01-26T01:43:12;94904.20;;;-0.58;100.00
5777;BME280;2914;42.668;23.346;2023-01-26T01:45:43;94908.34;;;-0.54;100.00
5777;BME280;2914;42.668;23.346;2023-01-26T01:48:18;94913.02;;;-0.62;100.00
5777;BME280;2914;42.668;23.346;2023-01-26T01:50:49;94897.98;;;-0.64;100.00
5777;BME280;2914;42.668;23.346;2023-01-26T01:53:22;94919.35;;;-0.69;100.00
5777;BME280;2914;42.668;23.346;2023-01-26T01:55:56;94909.45;;;-0.70;100.00
5777;BME280;2914;42.668;23.346;2023-01-26T01:58:26;94930.64;;;-0.70;100.00
5777;BME280;2914;42.668;23.346;2023-01-26T02:00:56;94911.84;;;-0.65;100.00
5777;BME280;2914;42.668;23.346;2023-01-26T02:03:26;94901.33;;;-0.52;99.62
5777;BME280;2914;42.668;23.346;2023-01-26T02:05:59;94909.91;;;-0.70;100.00
5777;BME280;2914;42.668;23.346;2023-01-26T02:08:30;94899.30;;;-0.74;100.00
5777;BME280;2914;42.668;23.346;2023-01-26T02:11:05;94900.57;;;-0.64;100.00
5777;BME280;2914;42.668;23.346;2023-01-26T02:13:34;94893.70;;;-0.65;100.00
5777;BME280;2914;42.668;23.346;2023-01-26T02:16:05;94886.53;;;-0.69;100.00
5777;BME280;2914;42.668;23.346;2023-01-26T02:18:35;94884.01;;;-0.70;100.00
5777;BME280;2914;42.668;23.346;2023-01-26T02:21:06;94883.86;;;-0.77;100.00
5777;BME280;2914;42.668;23.346;2023-01-26T02:23:56;94877.78;;;-0.76;100.00
5777;BME280;2914;42.668;23.346;2023-01-26T02:26:28;94868.45;;;-0.80;100.00
5777;BME280;2914;42.668;23.346;2023-01-26T02:28:58;94863.86;;;-0.74;100.00
5777;BME280;2914;42.668;23.346;2023-01-26T02:31:29;94853.38;;;-0.81;100.00
5777;BME280;2914;42.668;23.346;2023-01-26T02:33:58;94855.37;;;-0.77;100.00
5777;BME280;2914;42.668;23.346;2023-01-26T02:36:28;94845.00;;;-0.77;100.00
5777;BME280;2914;42.668;23.346;2023-01-26T02:39:08;94849.42;;;-0.90;100.00
5777;BME280;2914;42.668;23.346;2023-01-26T02:41:34;94859.60;;;-0.85;100.00
5777;BME280;2914;42.668;23.346;2023-01-26T02:44:21;94852.52;;;-0.81;100.00
5777;BME280;2914;42.668;23.346;2023-01-26T02:46:50;94851.64;;;-0.91;100.00
5777;BME280;2914;42.668;23.346;2023-01-26T02:49:20;94833.52;;;-0.91;100.00
5777;BME280;2914;42.668;23.346;2023-01-26T02:55:35;94838.94;;;-0.97;100.00
5777;BME280;2914;42.668;23.346;2023-01-26T02:58:05;94821.72;;;-0.98;100.00
5777;BME280;2914;42.668;23.346;2023-01-26T03:00:36;94808.23;;;-0.86;100.00
5777;BME280;2914;42.668;23.346;2023-01-26T03:03:09;94826.25;;;-0.82;100.00
5777;BME280;2914;42.668;23.346;2023-01-26T03:05:39;94812.95;;;-0.75;100.00
5777;BME280;2914;42.668;23.346;2023-01-26T03:08:09;94812.87;;;-0.63;100.00
5777;BME280;2914;42.668;23.346;2023-01-26T03:10:38;94807.77;;;-0.75;100.00
5777;BME280;2914;42.668;23.346;2023-01-26T03:13:07;94810.97;;;-0.78;100.00
5777;BME280;2914;42.668;23.346;2023-01-26T03:15:36;94823.13;;;-0.80;100.00
5777;BME280;2914;42.668;23.346;2023-01-26T03:18:15;94799.81;;;-0.70;100.00
5777;BME280;2914;42.668;23.346;2023-01-26T03:21:05;94797.64;;;-0.60;100.00
5777;BME280;2914;42.668;23.346;2023-01-26T03:23:52;94793.14;;;-0.57;100.00
5777;BME280;2914;42.668;23.346;2023-01-26T03:26:39;94791.16;;;-0.60;100.00
5777;BME280;2914;42.668;23.346;2023-01-26T03:29:28;94781.88;;;-0.56;100.00
5777;BME280;2914;42.668;23.346;2023-01-26T03:31:57;94779.77;;;-0.66;100.00
5777;BME280;2914;42.668;23.346;2023-01-26T03:34:27;94784.55;;;-0.67;100.00
5777;BME280;2914;42.668;23.346;2023-01-26T03:36:56;94789.70;;;-0.76;100.00
5777;BME280;2914;42.668;23.346;2023-01-26T03:39:26;94775.20;;;-0.80;100.00
5777;BME280;2914;42.668;23.346;2023-01-26T03:42:13;94784.52;;;-0.76;100.00
5777;BME280;2914;42.668;23.346;2023-01-26T03:44:59;94779.16;;;-0.82;100.00
5777;BME280;2914;42.668;23.346;2023-01-26T03:47:46;94765.31;;;-0.81;100.00
5777;BME280;2914;42.668;23.346;2023-01-26T03:50:33;94772.61;;;-0.70;100.00
5777;BME280;2914;42.668;23.346;2023-01-26T03:53:22;94773.29;;;-0.66;100.00
5777;BME280;2914;42.668;23.346;2023-01-26T03:56:10;94774.24;;;-0.88;100.00
5777;BME280;2914;42.668;23.346;2023-01-26T03:58:52;94772.77;;;-0.94;100.00
5777;BME280;2914;42.668;23.346;2023-01-26T04:01:23;94766.44;;;-0.97;100.00
5777;BME280;2914;42.668;23.346;2023-01-26T04:03:55;94773.02;;;-0.90;100.00
5777;BME280;2914;42.668;23.346;2023-01-26T04:12:51;94751.42;;;-0.80;100.00
5777;BME280;2914;42.668;23.346;2023-01-26T04:18:15;94746.29;;;-0.90;100.00
5777;BME280;2914;42.668;23.346;2023-01-26T04:21:03;94734.80;;;-0.74;100.00
5777;BME280;2914;42.668;23.346;2023-01-26T04:23:51;94733.44;;;-0.83;100.00
5777;BME280;2914;42.668;23.346;2023-01-26T04:26:23;94725.23;;;-0.82;100.00
5777;BME280;2914;42.668;23.346;2023-01-26T04:28:52;94724.20;;;-0.89;100.00
5777;BME280;2914;42.668;23.346;2023-01-26T04:31:21;94715.95;;;-0.78;100.00
5777;BME280;2914;42.668;23.346;2023-01-26T04:33:50;94718.47;;;-0.76;100.00
5777;BME280;2914;42.668;23.346;2023-01-26T04:38:57;94718.61;;;-0.79;100.00
5777;BME280;2914;42.668;23.346;2023-01-26T04:44:06;94709.24;;;-0.92;100.00
5777;BME280;2914;42.668;23.346;2023-01-26T04:46:36;94715.44;;;-1.05;100.00
5777;BME280;2914;42.668;23.346;2023-01-26T04:49:05;94718.92;;;-0.96;100.00
5777;BME280;2914;42.668;23.346;2023-01-26T04:51:34;94723.87;;;-0.81;100.00
5777;BME280;2914;42.668;23.346;2023-01-26T04:54:03;94715.92;;;-0.87;100.00
5777;BME280;2914;42.668;23.346;2023-01-26T04:56:34;94727.21;;;-0.79;100.00
5777;BME280;2914;42.668;23.346;2023-01-26T04:59:05;94724.23;;;-0.80;100.00
5777;BME280;2914;42.668;23.346;2023-01-26T05:01:35;94727.85;;;-0.74;100.00
5777;BME280;2914;42.668;23.346;2023-01-26T05:04:05;94723.62;;;-0.85;100.00
5777;BME280;2914;42.668;23.346;2023-01-26T05:09:11;94721.59;;;-0.78;100.00
5777;BME280;2914;42.668;23.346;2023-01-26T05:14:19;94720.10;;;-0.65;100.00
5777;BME280;2914;42.668;23.346;2023-01-26T05:16:48;94726.22;;;-0.66;100.00
5777;BME280;2914;42.668;23.346;2023-01-26T05:19:17;94713.30;;;-0.67;100.00
5777;BME280;2914;42.668;23.346;2023-01-26T05:21:46;94706.25;;;-0.64;100.00
5777;BME280;2914;42.668;23.346;2023-01-26T05:24:15;94729.39;;;-0.70;100.00
5777;BME280;2914;42.668;23.346;2023-01-26T05:26:44;94713.38;;;-0.69;100.00
5777;BME280;2914;42.668;23.346;2023-01-26T05:29:13;94718.47;;;-0.57;100.00
5777;BME280;2914;42.668;23.346;2023-01-26T05:31:42;94705.91;;;-0.47;99.71
5777;BME280;2914;42.668;23.346;2023-01-26T05:34:11;94709.95;;;-0.50;99.38
5777;BME280;2914;42.668;23.346;2023-01-26T05:36:40;94698.05;;;-0.55;98.90
5777;BME280;2914;42.668;23.346;2023-01-26T05:39:10;94706.38;;;-0.48;99.40
5777;BME280;2914;42.668;23.346;2023-01-26T05:41:39;94702.45;;;-0.57;99.37
5777;BME280;2914;42.668;23.346;2023-01-26T05:46:45;94701.17;;;-0.29;98.99
5777;BME280;2914;42.668;23.346;2023-01-26T05:49:14;94708.12;;;-0.48;99.11
5777;BME280;2914;42.668;23.346;2023-01-26T05:51:43;94706.09;;;-0.05;100.00
5777;BME280;2914;42.668;23.346;2023-01-26T05:54:12;94709.34;;;-0.19;99.24
5777;BME280;2914;42.668;23.346;2023-01-26T05:56:41;94706.86;;;-0.40;98.62
5777;BME280;2914;42.668;23.346;2023-01-26T05:59:10;94705.33;;;-0.44;99.43
5777;BME280;2914;42.668;23.346;2023-01-26T06:01:41;94703.56;;;-0.43;99.27
5777;BME280;2914;42.668;23.346;2023-01-26T06:06:53;94711.98;;;-0.29;99.12
5777;BME280;2914;42.668;23.346;2023-01-26T06:12:01;94700.20;;;-0.18;100.00
5777;BME280;2914;42.668;23.346;2023-01-26T06:14:31;94704.86;;;-0.43;99.24
5777;BME280;2914;42.668;23.346;2023-01-26T06:17:00;94703.05;;;-0.41;99.19
5777;BME280;2914;42.668;23.346;2023-01-26T06:22:08;94693.36;;;-0.38;99.62
5777;BME280;2914;42.668;23.346;2023-01-26T06:27:15;94700.47;;;-0.24;99.03
5777;BME280;2914;42.668;23.346;2023-01-26T06:32:23;94682.71;;;-0.31;98.71
5777;BME280;2914;42.668;23.346;2023-01-26T06:37:30;94681.30;;;-0.39;99.03
5777;BME280;2914;42.668;23.346;2023-01-26T06:42:38;94691.23;;;-0.38;99.66
5777;BME280;2914;42.668;23.346;2023-01-26T06:47:50;94698.03;;;-0.36;99.49
5777;BME280;2914;42.668;23.346;2023-01-26T06:50:22;94694.88;;;-0.42;99.91
5777;BME280;2914;42.668;23.346;2023-01-26T06:55:33;94688.14;;;-0.19;98.76
5777;BME280;2914;42.668;23.346;2023-01-26T07:00:38;94676.70;;;-0.23;99.08
5777;BME280;2914;42.668;23.346;2023-01-26T07:03:09;94681.50;;;-0.15;98.85
5777;BME280;2914;42.668;23.346;2023-01-26T07:05:39;94681.19;;;-0.18;98.65
5777;BME280;2914;42.668;23.346;2023-01-26T07:10:49;94674.63;;;-0.34;99.22
5777;BME280;2914;42.668;23.346;2023-01-26T07:16:01;94672.83;;;0.12;100.00
5777;BME280;2914;42.668;23.346;2023-01-26T07:18:31;94662.13;;;-0.26;99.52
5777;BME280;2914;42.668;23.346;2023-01-26T07:23:39;94665.94;;;-0.15;99.39
5777;BME280;2914;42.668;23.346;2023-01-26T07:26:09;94652.54;;;-0.15;99.44
5777;BME280;2914;42.668;23.346;2023-01-26T07:28:38;94654.15;;;-0.12;99.03
5777;BME280;2914;42.668;23.346;2023-01-26T07:31:09;94650.09;;;-0.09;98.96
5777;BME280;2914;42.668;23.346;2023-01-26T07:33:38;94650.09;;;-0.09;99.12
5777;BME280;2914;42.668;23.346;2023-01-26T07:36:08;94649.23;;;-0.10;99.41
5777;BME280;2914;42.668;23.346;2023-01-26T07:38:38;94655.05;;;-0.05;98.82
5777;BME280;2914;42.668;23.346;2023-01-26T07:43:48;94638.42;;;-0.09;99.46
5777;BME280;2914;42.668;23.346;2023-01-26T07:46:18;94640.02;;;-0.15;99.11
5777;BME280;2914;42.668;23.346;2023-01-26T07:48:47;94641.33;;;-0.07;99.61
5777;BME280;2914;42.668;23.346;2023-01-26T07:53:56;94641.55;;;0.24;99.07
5777;BME280;2914;42.668;23.346;2023-01-26T07:56:29;94646.50;;;0.11;98.27
5777;BME280;2914;42.668;23.346;2023-01-26T07:58:58;94642.55;;;0.12;98.27
5777;BME280;2914;42.668;23.346;2023-01-26T08:01:27;94645.89;;;-0.03;99.03
5777;BME280;2914;42.668;23.346;2023-01-26T08:03:56;94644.59;;;-0.03;99.08
5777;BME280;2914;42.668;23.346;2023-01-26T08:09:02;94638.89;;;-0.01;98.93
5777;BME280;2914;42.668;23.346;2023-01-26T08:14:09;94630.86;;;0.21;98.40
5777;BME280;2914;42.668;23.346;2023-01-26T08:16:39;94629.65;;;0.20;98.08
5777;BME280;2914;42.668;23.346;2023-01-26T08:19:08;94634.92;;;0.18;97.68
5777;BME280;2914;42.668;23.346;2023-01-26T08:21:38;94621.78;;;0.21;100.00
5777;BME280;2914;42.668;23.346;2023-01-26T08:24:09;94620.77;;;0.41;99.20
5777;BME280;2914;42.668;23.346;2023-01-26T08:29:17;94615.58;;;0.41;96.31
5777;BME280;2914;42.668;23.346;2023-01-26T08:31:47;94622.70;;;0.29;95.77
5777;BME280;2914;42.668;23.346;2023-01-26T08:34:17;94610.05;;;0.47;95.25
5777;BME280;2914;42.668;23.346;2023-01-26T08:36:48;94617.73;;;0.24;95.94
5777;BME280;2914;42.668;23.346;2023-01-26T08:41:56;94611.38;;;0.39;95.22
5777;BME280;2914;42.668;23.346;2023-01-26T08:44:25;94621.41;;;0.29;95.12
5777;BME280;2914;42.668;23.346;2023-01-26T08:46:54;94600.95;;;0.23;95.37
5777;BME280;2914;42.668;23.346;2023-01-26T08:49:24;94602.91;;;0.35;95.50
5777;BME280;2914;42.668;23.346;2023-01-26T08:51:53;94594.05;;;0.39;95.38
5777;BME280;2914;42.668;23.346;2023-01-26T08:54:23;94610.70;;;0.35;94.83
5777;BME280;2914;42.668;23.346;2023-01-26T08:56:52;94602.60;;;0.32;94.36
5777;BME280;2914;42.668;23.346;2023-01-26T08:59:22;94605.97;;;0.26;94.45
5777;BME280;2914;42.668;23.346;2023-01-26T09:01:51;94619.39;;;0.43;93.66
5777;BME280;2914;42.668;23.346;2023-01-26T09:07:00;94602.96;;;0.42;93.03
5777;BME280;2914;42.668;23.346;2023-01-26T09:12:08;94599.06;;;0.51;92.72
5777;BME280;2914;42.668;23.346;2023-01-26T09:14:37;94610.50;;;0.56;92.21
5777;BME280;2914;42.668;23.346;2023-01-26T09:19:43;94604.31;;;0.58;92.20
5777;BME280;2914;42.668;23.346;2023-01-26T09:24:50;94596.73;;;0.62;91.92
5777;BME280;2914;42.668;23.346;2023-01-26T09:29:57;94585.45;;;0.55;92.60
5777;BME280;2914;42.668;23.346;2023-01-26T09:35:06;94578.52;;;0.71;92.45
5777;BME280;2914;42.668;23.346;2023-01-26T09:37:37;94568.31;;;0.68;91.97
5777;BME280;2914;42.668;23.346;2023-01-26T09:42:56;94575.36;;;0.66;92.13
5777;BME280;2914;42.668;23.346;2023-01-26T09:45:31;94570.69;;;0.64;92.15
5777;BME280;2914;42.668;23.346;2023-01-26T09:50:56;94581.67;;;0.69;92.38
5777;BME280;2914;42.668;23.346;2023-01-26T09:53:27;94565.89;;;0.65;92.89
5777;BME280;2914;42.668;23.346;2023-01-26T09:58:48;94650.20;;;0.69;0.00
5777;BME280;2914;42.668;23.346;2023-01-26T10:01:20;94650.17;;;0.60;0.00
5777;BME280;2914;42.668;23.346;2023-01-26T10:06:33;94567.27;;;0.63;93.22
5777;BME280;2914;42.668;23.346;2023-01-26T10:09:07;94561.78;;;0.61;92.76
5777;BME280;2914;42.668;23.346;2023-01-26T10:14:32;94550.27;;;0.90;93.00
5777;BME280;2914;42.668;23.346;2023-01-26T10:17:04;94558.65;;;0.79;92.69
5777;BME280;2914;42.668;23.346;2023-01-26T10:19:36;94550.91;;;0.70;92.53
5777;BME280;2914;42.668;23.346;2023-01-26T10:22:09;94540.31;;;0.66;91.99
5777;BME280;2914;42.668;23.346;2023-01-26T10:24:38;94530.78;;;0.74;92.23
5777;BME280;2914;42.668;23.346;2023-01-26T10:27:11;94519.43;;;0.83;92.22
5777;BME280;2914;42.668;23.346;2023-01-26T10:29:41;94511.34;;;0.81;92.36
5777;BME280;2914;42.668;23.346;2023-01-26T10:34:49;94506.53;;;0.98;91.45
5777;BME280;2914;42.668;23.346;2023-01-26T10:37:21;94513.80;;;0.84;91.44
5777;BME280;2914;42.668;23.346;2023-01-26T10:39:59;94489.22;;;0.82;91.45
5777;BME280;2914;42.668;23.346;2023-01-26T10:45:23;94473.25;;;0.81;92.49
5777;BME280;2914;42.668;23.346;2023-01-26T10:50:41;94457.48;;;1.00;91.28
5777;BME280;2914;42.668;23.346;2023-01-26T10:53:16;94453.47;;;0.95;91.97
5777;BME280;2914;42.668;23.346;2023-01-26T10:58:50;94442.48;;;1.13;93.23
5777;BME280;2914;42.668;23.346;2023-01-26T11:01:20;94447.70;;;0.97;91.52
5777;BME280;2914;42.668;23.346;2023-01-26T11:06:41;94406.26;;;1.03;91.37
5777;BME280;2914;42.668;23.346;2023-01-26T11:09:15;94413.01;;;0.91;91.83
5777;BME280;2914;42.668;23.346;2023-01-26T11:11:58;94407.75;;;1.07;91.05
5777;BME280;2914;42.668;23.346;2023-01-26T11:14:29;94401.27;;;1.14;90.88
5777;BME280;2914;42.668;23.346;2023-01-26T11:17:06;94396.83;;;1.09;91.06
5777;BME280;2914;42.668;23.346;2023-01-26T11:19:48;94386.67;;;0.97;91.50
5777;BME280;2914;42.668;23.346;2023-01-26T11:22:19;94377.59;;;1.04;91.57
5777;BME280;2914;42.668;23.346;2023-01-26T11:27:37;94379.17;;;1.07;92.07
5777;BME280;2914;42.668;23.346;2023-01-26T11:35:59;94366.09;;;1.08;91.98
5777;BME280;2914;42.668;23.346;2023-01-26T11:38:38;94361.45;;;0.99;92.58
5777;BME280;2914;42.668;23.346;2023-01-26T11:41:28;94348.66;;;1.03;92.82
5777;BME280;2914;42.668;23.346;2023-01-26T11:46:56;94336.25;;;1.23;92.98
5777;BME280;2914;42.668;23.346;2023-01-26T11:49:38;94328.27;;;1.11;92.98
5777;BME280;2914;42.668;23.346;2023-01-26T11:55:03;94344.69;;;1.19;92.84
5777;BME280;2914;42.668;23.346;2023-01-26T11:57:36;94343.86;;;1.11;93.43
5777;BME280;2914;42.668;23.346;2023-01-26T12:00:12;94345.70;;;1.16;93.28
5777;BME280;2914;42.668;23.346;2023-01-26T12:02:44;94332.52;;;1.12;93.25
5777;BME280;2914;42.668;23.346;2023-01-26T12:08:01;94321.20;;;1.21;93.68
5777;BME280;2914;42.668;23.346;2023-01-26T12:10:34;94320.00;;;1.19;93.08
5777;BME280;2914;42.668;23.346;2023-01-26T12:13:07;94326.78;;;1.29;92.97
5777;BME280;2914;42.668;23.346;2023-01-26T12:15:38;94321.87;;;1.17;93.61
5777;BME280;2914;42.668;23.346;2023-01-26T12:18:13;94316.39;;;1.22;93.71
5777;BME280;2914;42.668;23.346;2023-01-26T12:20:48;94307.58;;;1.17;93.78
5777;BME280;2914;42.668;23.346;2023-01-26T12:23:22;94300.70;;;1.16;94.32
5777;BME280;2914;42.668;23.346;2023-01-26T12:28:33;94292.24;;;1.12;95.21
5777;BME280;2914;42.668;23.346;2023-01-26T12:31:06;94281.95;;;1.18;95.09
5777;BME280;2914;42.668;23.346;2023-01-26T12:33:36;94277.31;;;1.16;95.25
5777;BME280;2914;42.668;23.346;2023-01-26T12:39:07;94273.23;;;1.19;95.87
5777;BME280;2914;42.668;23.346;2023-01-26T12:41:45;94274.72;;;1.16;95.83
5777;BME280;2914;42.668;23.346;2023-01-26T12:44:23;94262.75;;;1.13;96.30
5777;BME280;2914;42.668;23.346;2023-01-26T12:46:53;94277.03;;;1.13;96.68
5777;BME280;2914;42.668;23.346;2023-01-26T12:52:05;94255.33;;;1.14;97.46
5777;BME280;2914;42.668;23.346;2023-01-26T12:54:39;94263.22;;;1.13;97.50
5777;BME280;2914;42.668;23.346;2023-01-26T12:57:11;94261.25;;;1.16;97.73
5777;BME280;2914;42.668;23.346;2023-01-26T12:59:41;94263.31;;;1.18;97.67
5777;BME280;2914;42.668;23.346;2023-01-26T13:05:01;94232.88;;;0.99;98.71
5777;BME280;2914;42.668;23.346;2023-01-26T13:10:22;94249.22;;;1.15;99.31
5777;BME280;2914;42.668;23.346;2023-01-26T13:12:53;94252.74;;;1.07;100.00
5777;BME280;2914;42.668;23.346;2023-01-26T13:15:24;94255.90;;;1.20;99.98
5777;BME280;2914;42.668;23.346;2023-01-26T13:17:56;94258.11;;;1.18;99.80
5777;BME280;2914;42.668;23.346;2023-01-26T13:20:40;94251.05;;;1.21;99.71
5777;BME280;2914;42.668;23.346;2023-01-26T13:22:59;94249.77;;;1.06;100.00
5777;BME280;2914;42.668;23.346;2023-01-26T13:25:30;94251.89;;;1.07;100.00
5777;BME280;2914;42.668;23.346;2023-01-26T13:28:00;94236.21;;;1.01;100.00
5777;BME280;2914;42.668;23.346;2023-01-26T13:30:41;94237.31;;;1.04;100.00
5777;BME280;2914;42.668;23.346;2023-01-26T13:33:15;94240.74;;;0.97;100.00
5777;BME280;2914;42.668;23.346;2023-01-26T13:35:45;94240.28;;;1.12;100.00
5777;BME280;2914;42.668;23.346;2023-01-26T13:38:20;94237.41;;;1.03;100.00
5777;BME280;2914;42.668;23.346;2023-01-26T13:40:50;94234.25;;;0.97;100.00
5777;BME280;2914;42.668;23.346;2023-01-26T13:46:12;94226.83;;;1.06;100.00
5777;BME280;2914;42.668;23.346;2023-01-26T13:48:45;94226.48;;;1.05;100.00
5777;BME280;2914;42.668;23.346;2023-01-26T13:51:17;94220.43;;;1.04;100.00
5777;BME280;2914;42.668;23.346;2023-01-26T13:54:00;94222.48;;;1.06;100.00
5777;BME280;2914;42.668;23.346;2023-01-26T13:56:31;94224.61;;;1.07;100.00
5777;BME280;2914;42.668;23.346;2023-01-26T13:59:10;94218.48;;;1.15;100.00
5777;BME280;2914;42.668;23.346;2023-01-26T14:01:44;94217.94;;;1.17;100.00
5777;BME280;2914;42.668;23.346;2023-01-26T14:07:01;64732.38;;;1.27;0.00
5777;BME280;2914;42.668;23.346;2023-01-26T14:09:33;64737.72;;;1.20;0.00
5777;BME280;2914;42.668;23.346;2023-01-26T14:14:39;94192.77;;;1.39;99.09
5777;BME280;2914;42.668;23.346;2023-01-26T14:19:59;94189.59;;;1.41;98.03
5777;BME280;2914;42.668;23.346;2023-01-26T14:25:09;94192.81;;;1.52;97.58
5777;BME280;2914;42.668;23.346;2023-01-26T14:30:25;94189.44;;;1.64;96.40
5777;BME280;2914;42.668;23.346;2023-01-26T14:33:01;94189.67;;;1.54;96.11
5777;BME280;2914;42.668;23.346;2023-01-26T14:38:15;94180.84;;;1.49;96.41
5777;BME280;2914;42.668;23.346;2023-01-26T14:43:32;94176.89;;;1.71;95.36
5777;BME280;2914;42.668;23.346;2023-01-26T14:46:03;94177.47;;;1.69;94.62
5777;BME280;2914;42.668;23.346;2023-01-26T14:48:37;94171.31;;;1.77;94.69
5777;BME280;2914;42.668;23.346;2023-01-26T14:51:09;94176.52;;;1.70;93.79
5777;BME280;2914;42.668;23.346;2023-01-26T14:53:38;94176.06;;;1.63;94.57
5777;BME280;2914;42.668;23.346;2023-01-26T14:56:17;94172.44;;;1.73;94.29
5777;BME280;2914;42.668;23.346;2023-01-26T14:58:49;94177.16;;;1.74;93.64
5777;BME280;2914;42.668;23.346;2023-01-26T15:01:24;94179.31;;;1.67;93.65
5777;BME280;2914;42.668;23.346;2023-01-26T15:04:00;94184.21;;;1.72;93.62
5777;BME280;2914;42.668;23.346;2023-01-26T15:06:31;94185.41;;;1.80;93.88
5777;BME280;2914;42.668;23.346;2023-01-26T15:09:03;94179.45;;;1.78;93.40
5777;BME280;2914;42.668;23.346;2023-01-26T15:14:30;94164.36;;;1.91;92.78
5777;BME280;2914;42.668;23.346;2023-01-26T15:17:00;94163.33;;;1.93;92.06
5777;BME280;2914;42.668;23.346;2023-01-26T15:19:38;94151.10;;;2.80;100.00
5777;BME280;2914;42.668;23.346;2023-01-26T15:25:15;94139.59;;;2.38;92.98
5777;BME280;2914;42.668;23.346;2023-01-26T15:27:37;94146.48;;;2.39;91.01
5777;BME280;2914;42.668;23.346;2023-01-26T15:30:15;94139.55;;;2.12;92.63
5777;BME280;2914;42.668;23.346;2023-01-26T15:32:45;94136.30;;;2.29;94.10
5777;BME280;2914;42.668;23.346;2023-01-26T15:35:23;94139.59;;;2.38;96.00
5777;BME280;2914;42.668;23.346;2023-01-26T15:38:01;94146.66;;;2.36;97.71
5777;BME280;2914;42.668;23.346;2023-01-26T15:40:31;94130.70;;;2.35;99.03
5777;BME280;2914;42.668;23.346;2023-01-26T15:45:51;94105.81;;;2.31;100.00
5777;BME280;2914;42.668;23.346;2023-01-26T15:48:22;94106.95;;;2.27;100.00
5777;BME280;2914;42.668;23.346;2023-01-26T15:50:51;94105.41;;;2.17;100.00
5777;BME280;2914;42.668;23.346;2023-01-26T15:55:59;94099.98;;;2.07;100.00
5777;BME280;2914;42.668;23.346;2023-01-26T15:58:31;94099.31;;;1.98;100.00
5777;BME280;2914;42.668;23.346;2023-01-26T16:01:02;94094.39;;;1.80;100.00
5777;BME280;2914;42.668;23.346;2023-01-26T16:03:31;94089.08;;;1.82;100.00
5777;BME280;2914;42.668;23.346;2023-01-26T16:08:38;94077.38;;;1.82;100.00
5777;BME280;2914;42.668;23.346;2023-01-26T16:13:45;94079.70;;;1.59;100.00
5777;BME280;2914;42.668;23.346;2023-01-26T16:16:15;94081.31;;;1.55;100.00
5777;BME280;2914;42.668;23.346;2023-01-26T16:18:44;94075.12;;;1.50;100.00
5777;BME280;2914;42.668;23.346;2023-01-26T16:21:19;94081.63;;;1.43;100.00
5777;BME280;2914;42.668;23.346;2023-01-26T16:23:48;94076.11;;;1.55;100.00
5777;BME280;2914;42.668;23.346;2023-01-26T16:26:18;94081.48;;;1.59;100.00
5777;BME280;2914;42.668;23.346;2023-01-26T16:28:48;94086.57;;;1.60;100.00
5777;BME280;2914;42.668;23.346;2023-01-26T16:31:19;94082.02;;;1.64;100.00
5777;BME280;2914;42.668;23.346;2023-01-26T16:33:49;94073.30;;;1.58;100.00
5777;BME280;2914;42.668;23.346;2023-01-26T16:36:19;94079.53;;;1.55;100.00
5777;BME280;2914;42.668;23.346;2023-01-26T16:38:48;94074.74;;;1.49;100.00
5777;BME280;2914;42.668;23.346;2023-01-26T16:44:01;94080.30;;;1.70;100.00
5777;BME280;2914;42.668;23.346;2023-01-26T16:46:30;94071.45;;;1.60;100.00
5777;BME280;2914;42.668;23.346;2023-01-26T16:48:59;94074.01;;;1.67;100.00
5777;BME280;2914;42.668;23.346;2023-01-26T16:51:30;94068.38;;;1.60;100.00
5777;BME280;2914;42.668;23.346;2023-01-26T16:54:00;94070.31;;;1.64;100.00
5777;BME280;2914;42.668;23.346;2023-01-26T16:56:29;94070.91;;;1.55;100.00
5777;BME280;2914;42.668;23.346;2023-01-26T16:58:59;94072.71;;;1.67;100.00
5777;BME280;2914;42.668;23.346;2023-01-26T17:01:31;94060.41;;;1.56;100.00
5777;BME280;2914;42.668;23.346;2023-01-26T17:04:00;94062.50;;;1.44;100.00
5777;BME280;2914;42.668;23.346;2023-01-26T17:09:06;94050.59;;;1.54;100.00
5777;BME280;2914;42.668;23.346;2023-01-26T17:14:14;94037.44;;;1.43;100.00
5777;BME280;2914;42.668;23.346;2023-01-26T17:16:43;94047.16;;;1.26;100.00
5777;BME280;2914;42.668;23.346;2023-01-26T17:19:13;94042.84;;;1.20;100.00
5777;BME280;2914;42.668;23.346;2023-01-26T17:24:28;94035.22;;;1.16;100.00